sensor_id;sensor_type;location;lat;lon;timestamp;pressure;altitude;pressure_sealevel;temperature;humidity
20860;BME280;10590;48.154;11.514;2023-03-01T00:02:19;96220.09;;;0.41;68.66
20860;BME280;10590;48.154;11.514;2023-03-01T00:07:22;96213.81;;;0.42;68.04
20860;BME280;10590;48.154;11.514;2023-03-01T00:12:23;96217.97;;;0.54;68.67
20860;BME280;10590;48.154;11.514;2023-03-01T00:17:26;96214.06;;;0.40;68.45
20860;BME280;10590;48.154;11.514;2023-03-01T00:22:30;96218.03;;;0.43;68.39
20860;BME280;10590;48.154;11.514;2023-03-01T00:27:31;96206.88;;;0.36;68.29
20860;BME280;10590;48.154;11.514;2023-03-01T00:32:33;96207.94;;;0.51;68.00
20860;BME280;10590;48.154;11.514;2023-03-01T00:37:36;96208.31;;;0.43;68.85
20860;BME280;10590;48.154;11.514;2023-03-01T00:42:37;96200.13;;;0.40;69.02
20860;BME280;10590;48.154;11.514;2023-03-01T00:47:39;96195.09;;;0.21;69.44
20860;BME280;10590;48.154;11.514;2023-03-01T00:52:42;96190.81;;;0.32;68.64
20860;BME280;10590;48.154;11.514;2023-03-01T00:57:44;96188.22;;;0.49;67.96
20860;BME280;10590;48.154;11.514;2023-03-01T01:02:46;96190.06;;;0.20;68.09
20860;BME280;10590;48.154;11.514;2023-03-01T01:07:49;96179.84;;;0.35;68.33
20860;BME280;10590;48.154;11.514;2023-03-01T01:12:51;96166.16;;;0.50;67.77
20860;BME280;10590;48.154;11.514;2023-03-01T01:17:52;96166.97;;;0.50;67.73
20860;BME280;10590;48.154;11.514;2023-03-01T01:22:56;96161.19;;;0.03;69.62
20860;BME280;10590;48.154;11.514;2023-03-01T01:27:57;96165.56;;;0.14;68.47
20860;BME280;10590;48.154;11.514;2023-03-01T01:32:59;96143.97;;;0.24;68.89
20860;BME280;10590;48.154;11.514;2023-03-01T01:38:02;96145.16;;;0.33;68.48
20860;BME280;10590;48.154;11.514;2023-03-01T01:43:05;96138.31;;;0.32;68.73
20860;BME280;10590;48.154;11.514;2023-03-01T01:48:12;96123.75;;;0.08;68.66
20860;BME280;10590;48.154;11.514;2023-03-01T01:53:18;96130.53;;;0.37;68.92
20860;BME280;10590;48.154;11.514;2023-03-01T01:58:21;96126.72;;;0.28;69.33
20860;BME280;10590;48.154;11.514;2023-03-01T02:03:26;96130.66;;;0.14;68.75
20860;BME280;10590;48.154;11.514;2023-03-01T02:08:33;96124.47;;;0.20;68.31
20860;BME280;10590;48.154;11.514;2023-03-01T02:13:36;96122.09;;;0.35;68.29
20860;BME280;10590;48.154;11.514;2023-03-01T02:18:39;96117.16;;;0.22;69.45
20860;BME280;10590;48.154;11.514;2023-03-01T02:23:42;96112.84;;;0.16;68.27
20860;BME280;10590;48.154;11.514;2023-03-01T02:28:45;96105.31;;;0.36;69.19
20860;BME280;10590;48.154;11.514;2023-03-01T02:33:48;96106.41;;;0.07;69.38
20860;BME280;10590;48.154;11.514;2023-03-01T02:38:52;96109.84;;;0.24;68.80
20860;BME280;10590;48.154;11.514;2023-03-01T02:43:56;96096.66;;;0.36;67.91
20860;BME280;10590;48.154;11.514;2023-03-01T02:48:59;96100.53;;;0.33;68.80
20860;BME280;10590;48.154;11.514;2023-03-01T02:54:10;96103.31;;;0.10;68.97
20860;BME280;10590;48.154;11.514;2023-03-01T02:59:16;96098.78;;;0.05;69.24
20860;BME280;10590;48.154;11.514;2023-03-01T03:04:19;96096.16;;;0.22;68.91
20860;BME280;10590;48.154;11.514;2023-03-01T03:09:21;96096.56;;;0.14;68.69
20860;BME280;10590;48.154;11.514;2023-03-01T03:14:24;96101.41;;;0.05;68.21
20860;BME280;10590;48.154;11.514;2023-03-01T03:19:26;96099.00;;;-0.25;69.99
20860;BME280;10590;48.154;11.514;2023-03-01T03:24:27;96078.63;;;-0.06;68.53
20860;BME280;10590;48.154;11.514;2023-03-01T03:29:39;96103.78;;;-0.50;68.49
20860;BME280;10590;48.154;11.514;2023-03-01T03:34:41;96082.06;;;-0.34;69.40
20860;BME280;10590;48.154;11.514;2023-03-01T03:39:42;96085.59;;;-0.12;68.64
20860;BME280;10590;48.154;11.514;2023-03-01T03:44:45;96082.00;;;0.06;68.51
20860;BME280;10590;48.154;11.514;2023-03-01T03:49:47;96059.69;;;-0.25;67.99
20860;BME280;10590;48.154;11.514;2023-03-01T03:54:48;96076.59;;;-0.33;68.84
20860;BME280;10590;48.154;11.514;2023-03-01T03:59:51;96075.31;;;-0.30;68.71
20860;BME280;10590;48.154;11.514;2023-03-01T04:04:53;96069.66;;;-0.39;68.44
20860;BME280;10590;48.154;11.514;2023-03-01T04:09:54;96070.03;;;-0.47;68.89
20860;BME280;10590;48.154;11.514;2023-03-01T04:14:57;96064.66;;;-0.40;68.19
20860;BME280;10590;48.154;11.514;2023-03-01T04:19:59;96057.06;;;-0.53;68.57
20860;BME280;10590;48.154;11.514;2023-03-01T04:25:06;96064.88;;;-0.70;69.47
20860;BME280;10590;48.154;11.514;2023-03-01T04:30:10;96065.34;;;-0.73;69.45
20860;BME280;10590;48.154;11.514;2023-03-01T04:35:12;96070.16;;;-0.82;70.20
20860;BME280;10590;48.154;11.514;2023-03-01T04:40:15;96055.56;;;-0.78;69.61
20860;BME280;10590;48.154;11.514;2023-03-01T04:45:18;96067.31;;;-0.80;70.10
20860;BME280;10590;48.154;11.514;2023-03-01T04:50:20;96055.19;;;-0.70;70.15
20860;BME280;10590;48.154;11.514;2023-03-01T04:55:24;96053.97;;;-0.79;69.88
20860;BME280;10590;48.154;11.514;2023-03-01T05:00:28;96047.28;;;-0.86;69.76
20860;BME280;10590;48.154;11.514;2023-03-01T05:05:31;96045.78;;;-0.94;70.47
20860;BME280;10590;48.154;11.514;2023-03-01T05:10:35;96046.72;;;-1.00;70.51
20860;BME280;10590;48.154;11.514;2023-03-01T05:15:40;96039.38;;;-1.38;70.87
20860;BME280;10590;48.154;11.514;2023-03-01T05:20:42;96047.69;;;-1.30;70.59
20860;BME280;10590;48.154;11.514;2023-03-01T05:25:44;96035.75;;;-1.37;70.84
20860;BME280;10590;48.154;11.514;2023-03-01T05:30:47;96035.19;;;-1.39;71.41
20860;BME280;10590;48.154;11.514;2023-03-01T05:35:51;96041.63;;;-1.18;70.82
20860;BME280;10590;48.154;11.514;2023-03-01T05:40:54;96039.59;;;-1.28;70.65
20860;BME280;10590;48.154;11.514;2023-03-01T05:45:57;96032.31;;;-1.26;70.57
20860;BME280;10590;48.154;11.514;2023-03-01T05:51:00;96028.13;;;-1.39;71.49
20860;BME280;10590;48.154;11.514;2023-03-01T05:56:03;96027.31;;;-1.39;71.01
20860;BME280;10590;48.154;11.514;2023-03-01T06:01:11;96036.53;;;-1.25;71.81
20860;BME280;10590;48.154;11.514;2023-03-01T06:06:12;96038.31;;;-1.02;71.36
20860;BME280;10590;48.154;11.514;2023-03-01T06:11:14;96049.03;;;-1.15;70.32
20860;BME280;10590;48.154;11.514;2023-03-01T06:16:19;96035.66;;;-1.66;71.93
20860;BME280;10590;48.154;11.514;2023-03-01T06:21:21;96043.81;;;-1.27;70.80
20860;BME280;10590;48.154;11.514;2023-03-01T06:26:22;96038.31;;;-1.14;71.26
20860;BME280;10590;48.154;11.514;2023-03-01T06:31:25;96044.16;;;-1.35;70.66
20860;BME280;10590;48.154;11.514;2023-03-01T06:36:27;96056.34;;;-1.29;71.43
20860;BME280;10590;48.154;11.514;2023-03-01T06:41:28;96063.16;;;-1.28;70.90
20860;BME280;10590;48.154;11.514;2023-03-01T06:46:31;96059.38;;;-1.09;70.23
20860;BME280;10590;48.154;11.514;2023-03-01T06:51:33;96053.16;;;-1.43;71.52
20860;BME280;10590;48.154;11.514;2023-03-01T06:56:35;96049.81;;;-1.03;71.15
20860;BME280;10590;48.154;11.514;2023-03-01T07:01:38;96046.63;;;-1.05;70.44
20860;BME280;10590;48.154;11.514;2023-03-01T07:06:40;96036.28;;;-1.12;70.46
20860;BME280;10590;48.154;11.514;2023-03-01T07:11:42;96048.28;;;-0.87;69.18
20860;BME280;10590;48.154;11.514;2023-03-01T07:16:45;96056.94;;;-0.87;69.48
20860;BME280;10590;48.154;11.514;2023-03-01T07:21:46;96044.16;;;-0.72;68.58
20860;BME280;10590;48.154;11.514;2023-03-01T07:26:48;96033.09;;;0.17;72.75
20860;BME280;10590;48.154;11.514;2023-03-01T07:31:51;96033.78;;;0.84;69.04
20860;BME280;10590;48.154;11.514;2023-03-01T07:36:53;96033.63;;;-0.15;68.38
20860;BME280;10590;48.154;11.514;2023-03-01T07:41:54;96029.34;;;-0.21;67.04
20860;BME280;10590;48.154;11.514;2023-03-01T07:46:57;96035.97;;;-0.87;68.88
20860;BME280;10590;48.154;11.514;2023-03-01T07:51:59;96031.16;;;-0.67;68.49
20860;BME280;10590;48.154;11.514;2023-03-01T07:57:01;96022.06;;;-0.47;68.28
20860;BME280;10590;48.154;11.514;2023-03-01T08:02:03;96013.31;;;-0.53;67.76
20860;BME280;10590;48.154;11.514;2023-03-01T08:07:05;96024.97;;;-0.15;66.51
20860;BME280;10590;48.154;11.514;2023-03-01T08:12:07;96015.78;;;-0.46;67.50
20860;BME280;10590;48.154;11.514;2023-03-01T08:17:10;95992.41;;;-0.65;67.73
20860;BME280;10590;48.154;11.514;2023-03-01T08:22:11;96013.13;;;-0.63;67.56
20860;BME280;10590;48.154;11.514;2023-03-01T08:27:15;96015.16;;;0.09;66.17
20860;BME280;10590;48.154;11.514;2023-03-01T08:32:18;96012.75;;;0.07;66.00
20860;BME280;10590;48.154;11.514;2023-03-01T08:37:19;96015.63;;;-0.56;67.37
20860;BME280;10590;48.154;11.514;2023-03-01T08:42:21;96002.19;;;0.19;64.64
20860;BME280;10590;48.154;11.514;2023-03-01T08:47:24;96001.84;;;-0.18;64.56
20860;BME280;10590;48.154;11.514;2023-03-01T08:52:26;96000.72;;;-0.06;65.85
20860;BME280;10590;48.154;11.514;2023-03-01T08:57:28;95998.09;;;-0.22;66.51
20860;BME280;10590;48.154;11.514;2023-03-01T09:02:30;95993.31;;;0.42;65.05
20860;BME280;10590;48.154;11.514;2023-03-01T09:07:32;95984.06;;;0.78;63.36
20860;BME280;10590;48.154;11.514;2023-03-01T09:12:34;95988.88;;;0.64;63.98
20860;BME280;10590;48.154;11.514;2023-03-01T09:17:37;95999.56;;;0.19;65.31
20860;BME280;10590;48.154;11.514;2023-03-01T09:22:38;96000.56;;;0.35;65.09
20860;BME280;10590;48.154;11.514;2023-03-01T09:27:40;95985.78;;;0.67;63.87
20860;BME280;10590;48.154;11.514;2023-03-01T09:32:43;95991.88;;;0.73;64.07
20860;BME280;10590;48.154;11.514;2023-03-01T09:37:45;95979.50;;;0.68;63.82
20860;BME280;10590;48.154;11.514;2023-03-01T09:42:52;95991.22;;;0.82;63.61
20860;BME280;10590;48.154;11.514;2023-03-01T09:47:57;95974.22;;;0.46;64.28
20860;BME280;10590;48.154;11.514;2023-03-01T09:53:02;95974.19;;;0.85;63.56
20860;BME280;10590;48.154;11.514;2023-03-01T10:03:43;95966.00;;;1.03;63.16
20860;BME280;10590;48.154;11.514;2023-03-01T10:08:51;95969.53;;;1.41;61.83
20860;BME280;10590;48.154;11.514;2023-03-01T10:14:01;95956.09;;;1.37;63.72
20860;BME280;10590;48.154;11.514;2023-03-01T10:19:09;95968.25;;;1.43;63.38
20860;BME280;10590;48.154;11.514;2023-03-01T10:24:14;95959.63;;;1.21;63.03
20860;BME280;10590;48.154;11.514;2023-03-01T10:29:23;95953.97;;;1.34;61.81
20860;BME280;10590;48.154;11.514;2023-03-01T10:34:31;95954.81;;;2.41;59.15
20860;BME280;10590;48.154;11.514;2023-03-01T10:39:33;95958.28;;;1.18;61.72
20860;BME280;10590;48.154;11.514;2023-03-01T10:44:38;95952.09;;;2.26;58.42
20860;BME280;10590;48.154;11.514;2023-03-01T10:49:51;95935.63;;;3.13;56.84
20860;BME280;10590;48.154;11.514;2023-03-01T10:54:55;95925.47;;;1.53;60.94
20860;BME280;10590;48.154;11.514;2023-03-01T11:00:18;95915.38;;;3.34;55.31
20860;BME280;10590;48.154;11.514;2023-03-01T11:05:23;95908.50;;;3.38;55.36
20860;BME280;10590;48.154;11.514;2023-03-01T11:10:27;95891.91;;;3.98;53.93
20860;BME280;10590;48.154;11.514;2023-03-01T11:15:29;95881.00;;;4.30;52.61
20860;BME280;10590;48.154;11.514;2023-03-01T11:20:34;95860.22;;;6.72;46.36
20860;BME280;10590;48.154;11.514;2023-03-01T11:25:38;95853.97;;;7.43;44.45
20860;BME280;10590;48.154;11.514;2023-03-01T11:30:46;95848.84;;;7.98;43.71
20860;BME280;10590;48.154;11.514;2023-03-01T11:36:00;95847.13;;;7.56;44.15
20860;BME280;10590;48.154;11.514;2023-03-01T11:41:06;95837.25;;;6.44;47.62
20860;BME280;10590;48.154;11.514;2023-03-01T11:46:34;95830.19;;;5.47;50.02
20860;BME280;10590;48.154;11.514;2023-03-01T11:51:48;95822.56;;;6.51;48.24
20860;BME280;10590;48.154;11.514;2023-03-01T11:56:57;95826.09;;;4.87;51.06
20860;BME280;10590;48.154;11.514;2023-03-01T12:02:16;95828.06;;;5.78;49.00
20860;BME280;10590;48.154;11.514;2023-03-01T12:07:27;95814.88;;;6.02;48.56
20860;BME280;10590;48.154;11.514;2023-03-01T12:12:52;95814.84;;;3.91;54.45
20860;BME280;10590;48.154;11.514;2023-03-01T12:18:22;95806.81;;;4.86;53.46
20860;BME280;10590;48.154;11.514;2023-03-01T12:23:50;95794.13;;;6.57;48.30
20860;BME280;10590;48.154;11.514;2023-03-01T12:29:02;95785.38;;;7.64;45.33
20860;BME280;10590;48.154;11.514;2023-03-01T12:34:23;95782.94;;;5.93;49.71
20860;BME280;10590;48.154;11.514;2023-03-01T12:39:43;95764.63;;;6.82;47.99
20860;BME280;10590;48.154;11.514;2023-03-01T12:45:02;95764.81;;;5.13;51.20
20860;BME280;10590;48.154;11.514;2023-03-01T12:50:14;95772.94;;;6.14;50.15
20860;BME280;10590;48.154;11.514;2023-03-01T12:55:26;95775.72;;;5.99;49.91
20860;BME280;10590;48.154;11.514;2023-03-01T13:00:32;95767.44;;;4.35;53.69
20860;BME280;10590;48.154;11.514;2023-03-01T13:05:45;95768.91;;;5.35;51.97
20860;BME280;10590;48.154;11.514;2023-03-01T13:10:54;95765.53;;;5.29;52.42
20860;BME280;10590;48.154;11.514;2023-03-01T13:16:22;95762.63;;;7.12;47.85
20860;BME280;10590;48.154;11.514;2023-03-01T13:21:40;95746.81;;;5.16;51.93
20860;BME280;10590;48.154;11.514;2023-03-01T13:27:18;95774.16;;;5.40;51.48
20860;BME280;10590;48.154;11.514;2023-03-01T13:32:25;95763.69;;;5.83;50.77
20860;BME280;10590;48.154;11.514;2023-03-01T13:37:33;95759.75;;;5.51;51.02
20860;BME280;10590;48.154;11.514;2023-03-01T13:42:42;95739.19;;;7.00;48.85
20860;BME280;10590;48.154;11.514;2023-03-01T13:47:47;95744.41;;;6.86;48.95
20860;BME280;10590;48.154;11.514;2023-03-01T13:52:55;95765.41;;;7.01;48.65
20860;BME280;10590;48.154;11.514;2023-03-01T13:58:04;95749.13;;;6.52;48.91
20860;BME280;10590;48.154;11.514;2023-03-01T14:03:12;95718.44;;;6.83;48.79
20860;BME280;10590;48.154;11.514;2023-03-01T14:08:20;95727.69;;;6.29;49.94
20860;BME280;10590;48.154;11.514;2023-03-01T14:13:34;95736.34;;;6.16;50.23
20860;BME280;10590;48.154;11.514;2023-03-01T14:18:45;95733.00;;;6.29;50.47
20860;BME280;10590;48.154;11.514;2023-03-01T14:23:49;95727.78;;;6.81;49.38
20860;BME280;10590;48.154;11.514;2023-03-01T14:28:52;95720.06;;;5.75;52.08
20860;BME280;10590;48.154;11.514;2023-03-01T14:33:55;95704.47;;;5.50;53.98
20860;BME280;10590;48.154;11.514;2023-03-01T14:38:57;95694.91;;;6.25;52.37
20860;BME280;10590;48.154;11.514;2023-03-01T14:44:07;95688.53;;;5.79;53.56
20860;BME280;10590;48.154;11.514;2023-03-01T14:49:16;95694.97;;;5.96;54.64
20860;BME280;10590;48.154;11.514;2023-03-01T14:54:21;95687.53;;;5.98;54.25
20860;BME280;10590;48.154;11.514;2023-03-01T14:59:27;95700.69;;;5.80;53.60
20860;BME280;10590;48.154;11.514;2023-03-01T15:04:29;95686.97;;;5.54;54.93
20860;BME280;10590;48.154;11.514;2023-03-01T15:09:34;95694.66;;;5.50;55.34
20860;BME280;10590;48.154;11.514;2023-03-01T15:14:43;95690.59;;;5.34;55.52
20860;BME280;10590;48.154;11.514;2023-03-01T15:19:46;95686.72;;;5.74;55.02
20860;BME280;10590;48.154;11.514;2023-03-01T15:24:49;95691.47;;;5.53;55.46
20860;BME280;10590;48.154;11.514;2023-03-01T15:29:54;95680.75;;;5.39;55.70
20860;BME280;10590;48.154;11.514;2023-03-01T15:34:57;95684.16;;;5.69;55.92
20860;BME280;10590;48.154;11.514;2023-03-01T15:39:59;95679.97;;;5.87;55.95
20860;BME280;10590;48.154;11.514;2023-03-01T15:45:09;95683.97;;;5.84;55.98
20860;BME280;10590;48.154;11.514;2023-03-01T15:50:16;95673.56;;;5.93;55.84
20860;BME280;10590;48.154;11.514;2023-03-01T15:55:20;95674.34;;;5.46;57.37
20860;BME280;10590;48.154;11.514;2023-03-01T16:00:24;95673.28;;;5.70;56.46
20860;BME280;10590;48.154;11.514;2023-03-01T16:05:28;95677.00;;;5.69;57.64
20860;BME280;10590;48.154;11.514;2023-03-01T16:10:30;95662.41;;;5.48;57.84
20860;BME280;10590;48.154;11.514;2023-03-01T16:15:34;95668.03;;;5.41;58.20
20860;BME280;10590;48.154;11.514;2023-03-01T16:20:36;95675.00;;;5.32;58.41
20860;BME280;10590;48.154;11.514;2023-03-01T16:25:37;95660.03;;;5.18;59.17
20860;BME280;10590;48.154;11.514;2023-03-01T16:30:45;95672.41;;;4.98;60.25
20860;BME280;10590;48.154;11.514;2023-03-01T16:35:47;95664.41;;;5.03;59.80
20860;BME280;10590;48.154;11.514;2023-03-01T16:40:50;95670.69;;;5.12;60.16
20860;BME280;10590;48.154;11.514;2023-03-01T16:45:54;95669.78;;;4.93;60.59
20860;BME280;10590;48.154;11.514;2023-03-01T16:50:57;95667.28;;;4.78;61.39
20860;BME280;10590;48.154;11.514;2023-03-01T16:55:58;95673.41;;;4.73;61.96
20860;BME280;10590;48.154;11.514;2023-03-01T17:01:06;95676.44;;;4.91;60.95
20860;BME280;10590;48.154;11.514;2023-03-01T17:06:10;95684.31;;;4.96;60.91
20860;BME280;10590;48.154;11.514;2023-03-01T17:11:15;95697.69;;;4.75;61.90
20860;BME280;10590;48.154;11.514;2023-03-01T17:16:19;95694.78;;;4.77;61.73
20860;BME280;10590;48.154;11.514;2023-03-01T17:21:21;95693.66;;;4.83;61.47
20860;BME280;10590;48.154;11.514;2023-03-01T17:26:22;95696.34;;;4.78;61.88
20860;BME280;10590;48.154;11.514;2023-03-01T17:31:25;95702.03;;;4.61;62.75
20860;BME280;10590;48.154;11.514;2023-03-01T17:36:27;95697.91;;;4.45;63.30
20860;BME280;10590;48.154;11.514;2023-03-01T17:41:29;95704.56;;;4.32;64.26
20860;BME280;10590;48.154;11.514;2023-03-01T17:46:31;95689.41;;;4.04;65.04
20860;BME280;10590;48.154;11.514;2023-03-01T17:51:33;95709.72;;;4.08;65.33
20860;BME280;10590;48.154;11.514;2023-03-01T17:56:35;95724.09;;;3.77;65.88
20860;BME280;10590;48.154;11.514;2023-03-01T18:01:40;95728.66;;;3.51;65.97
20860;BME280;10590;48.154;11.514;2023-03-01T18:06:41;95731.28;;;3.31;66.11
20860;BME280;10590;48.154;11.514;2023-03-01T18:11:43;95734.75;;;3.16;67.01
20860;BME280;10590;48.154;11.514;2023-03-01T18:16:48;95722.88;;;2.73;67.79
20860;BME280;10590;48.154;11.514;2023-03-01T18:21:50;95743.44;;;2.76;67.82
20860;BME280;10590;48.154;11.514;2023-03-01T18:26:51;95740.75;;;2.55;68.60
20860;BME280;10590;48.154;11.514;2023-03-01T18:31:54;95729.16;;;2.46;69.33
20860;BME280;10590;48.154;11.514;2023-03-01T18:36:56;95738.13;;;2.50;69.05
20860;BME280;10590;48.154;11.514;2023-03-01T18:41:57;95725.72;;;2.46;69.40
20860;BME280;10590;48.154;11.514;2023-03-01T18:47:00;95728.34;;;2.36;69.63
20860;BME280;10590;48.154;11.514;2023-03-01T18:52:02;95726.50;;;2.36;69.36
20860;BME280;10590;48.154;11.514;2023-03-01T18:57:04;95730.94;;;2.20;70.20
20860;BME280;10590;48.154;11.514;2023-03-01T19:02:09;95722.91;;;1.80;71.26
20860;BME280;10590;48.154;11.514;2023-03-01T19:07:11;95721.84;;;1.34;71.96
20860;BME280;10590;48.154;11.514;2023-03-01T19:12:12;95716.16;;;1.52;72.40
20860;BME280;10590;48.154;11.514;2023-03-01T19:17:15;95721.38;;;1.00;73.95
20860;BME280;10590;48.154;11.514;2023-03-01T19:22:19;95717.84;;;1.21;72.93
20860;BME280;10590;48.154;11.514;2023-03-01T19:27:20;95720.34;;;1.48;72.31
20860;BME280;10590;48.154;11.514;2023-03-01T19:32:23;95731.25;;;0.87;74.85
20860;BME280;10590;48.154;11.514;2023-03-01T19:37:25;95720.63;;;1.04;73.96
20860;BME280;10590;48.154;11.514;2023-03-01T19:42:26;95719.38;;;1.17;73.56
20860;BME280;10590;48.154;11.514;2023-03-01T19:47:29;95713.34;;;1.16;74.87
20860;BME280;10590;48.154;11.514;2023-03-01T19:52:31;95720.47;;;1.21;74.30
20860;BME280;10590;48.154;11.514;2023-03-01T19:57:32;95710.91;;;1.52;75.05
20860;BME280;10590;48.154;11.514;2023-03-01T20:02:35;95719.50;;;1.84;74.81
20860;BME280;10590;48.154;11.514;2023-03-01T20:07:37;95710.91;;;2.14;73.45
20860;BME280;10590;48.154;11.514;2023-03-01T20:12:39;95716.47;;;2.23;73.75
20860;BME280;10590;48.154;11.514;2023-03-01T20:17:42;95708.84;;;2.37;72.57
20860;BME280;10590;48.154;11.514;2023-03-01T20:22:43;95707.78;;;2.33;73.34
20860;BME280;10590;48.154;11.514;2023-03-01T20:27:45;95705.97;;;2.43;72.49
20860;BME280;10590;48.154;11.514;2023-03-01T20:32:48;95697.81;;;2.55;71.72
20860;BME280;10590;48.154;11.514;2023-03-01T20:37:50;95700.97;;;2.47;71.80
20860;BME280;10590;48.154;11.514;2023-03-01T20:42:53;95679.09;;;2.26;71.76
20860;BME280;10590;48.154;11.514;2023-03-01T20:47:58;95695.94;;;2.30;72.32
20860;BME280;10590;48.154;11.514;2023-03-01T20:53:00;95696.47;;;2.37;71.33
20860;BME280;10590;48.154;11.514;2023-03-01T20:58:02;95698.31;;;2.27;71.62
20860;BME280;10590;48.154;11.514;2023-03-01T21:03:05;95687.53;;;2.33;71.38
20860;BME280;10590;48.154;11.514;2023-03-01T21:08:07;95698.28;;;2.16;71.57
20860;BME280;10590;48.154;11.514;2023-03-01T21:13:09;95700.91;;;2.11;71.57
20860;BME280;10590;48.154;11.514;2023-03-01T21:18:13;95697.75;;;2.14;71.97
20860;BME280;10590;48.154;11.514;2023-03-01T21:23:14;95688.50;;;1.97;72.28
20860;BME280;10590;48.154;11.514;2023-03-01T21:28:18;95691.69;;;2.09;71.66
20860;BME280;10590;48.154;11.514;2023-03-01T21:33:22;95683.50;;;1.95;72.50
20860;BME280;10590;48.154;11.514;2023-03-01T21:38:24;95685.84;;;1.91;72.84
20860;BME280;10590;48.154;11.514;2023-03-01T21:43:26;95676.09;;;1.87;72.76
20860;BME280;10590;48.154;11.514;2023-03-01T21:48:29;95660.56;;;1.85;72.46
20860;BME280;10590;48.154;11.514;2023-03-01T21:53:33;95676.00;;;1.67;73.45
20860;BME280;10590;48.154;11.514;2023-03-01T21:58:35;95673.63;;;1.65;73.88
20860;BME280;10590;48.154;11.514;2023-03-01T22:03:38;95669.94;;;1.66;73.96
20860;BME280;10590;48.154;11.514;2023-03-01T22:08:46;95663.63;;;1.62;73.40
20860;BME280;10590;48.154;11.514;2023-03-01T22:13:49;95667.22;;;1.41;74.31
20860;BME280;10590;48.154;11.514;2023-03-01T22:18:52;95666.94;;;1.37;74.93
20860;BME280;10590;48.154;11.514;2023-03-01T22:23:55;95665.75;;;1.70;73.07
20860;BME280;10590;48.154;11.514;2023-03-01T22:28:58;95655.63;;;1.37;74.75
20860;BME280;10590;48.154;11.514;2023-03-01T22:34:02;95654.97;;;1.67;73.73
20860;BME280;10590;48.154;11.514;2023-03-01T22:39:05;95647.28;;;1.55;73.75
20860;BME280;10590;48.154;11.514;2023-03-01T22:44:06;95647.44;;;1.28;74.83
20860;BME280;10590;48.154;11.514;2023-03-01T22:49:09;95632.63;;;1.07;75.55
20860;BME280;10590;48.154;11.514;2023-03-01T22:54:11;95646.44;;;1.39;74.43
20860;BME280;10590;48.154;11.514;2023-03-01T22:59:16;95643.47;;;1.25;75.54
20860;BME280;10590;48.154;11.514;2023-03-01T23:04:21;95633.03;;;1.36;75.02
20860;BME280;10590;48.154;11.514;2023-03-01T23:09:25;95640.56;;;1.17;75.31
20860;BME280;10590;48.154;11.514;2023-03-01T23:14:29;95635.00;;;1.08;76.80
20860;BME280;10590;48.154;11.514;2023-03-01T23:19:33;95634.28;;;0.81;77.73
20860;BME280;10590;48.154;11.514;2023-03-01T23:24:34;95624.13;;;0.89;76.37
20860;BME280;10590;48.154;11.514;2023-03-01T23:29:36;95632.31;;;0.98;76.23
20860;BME280;10590;48.154;11.514;2023-03-01T23:34:39;95640.28;;;0.76;77.59
20860;BME280;10590;48.154;11.514;2023-03-01T23:39:42;95634.16;;;0.66;77.30
20860;BME280;10590;48.154;11.514;2023-03-01T23:44:44;95627.69;;;0.78;77.03
20860;BME280;10590;48.154;11.514;2023-03-01T23:49:49;95627.69;;;0.78;76.45
20860;BME280;10590;48.154;11.514;2023-03-01T23:54:50;95613.91;;;0.61;77.03
20860;BME280;10590;48.154;11.514;2023-03-01T23:59:52;95616.84;;;0.64;77.48
